HEBA/HBE METAR and TAF weather

Enter ICAO airport designator
Station Type Date Time Source
HEBA METAR 2021/04/17 02:00 UTC NOAA

HEBA 170200Z 10007KT CAVOK 15/10 Q1013 NOSIG


Station Type Date Time Source
HEBA Decoded METAR 2021/04/17 02:00 UTC NOAA

Alexandria Borg El Arab, Egypt (HEBA) 31-31N 030-10E
Apr 16, 2021 - 10:00 PM EDT / 2021.04.17 0200 UTC
Wind: from the E (100 degrees) at 8 MPH (7 KT):0
Visibility: greater than 7 mile(s):0
Temperature: 59 F (15 C)
Dew Point: 50 F (10 C)
Relative Humidity: 72%
Pressure (altimeter): 29.91 in. Hg (1013 hPa)
ob: HEBA 170200Z 10007KT CAVOK 15/10 Q1013 NOSIG
cycle: 2

Station Type Date Time Source
HEBA TAF 2021/04/16 18:12 UTC NOAA

TAF HEBA 161700Z 1618/1724 10010KT CAVOK

Example: see airport list